createdAt,value
2023-03-10T00:02:00.999Z,6.9
2023-03-10T00:04:01.073Z,6.7
2023-03-10T00:07:00.954Z,6.7
2023-03-10T00:08:01.011Z,6.8
2023-03-10T00:11:00.943Z,6.9
2023-03-10T00:12:01.166Z,6.8
2023-03-10T00:14:00.974Z,6.9
2023-03-10T00:15:01.213Z,6.8
2023-03-10T00:20:01.010Z,6.9
2023-03-10T00:22:01.162Z,7
2023-03-10T00:24:01.130Z,6.8
2023-03-10T00:29:00.951Z,7
2023-03-10T00:31:01.001Z,7.1
2023-03-10T00:32:00.973Z,7
2023-03-10T00:37:01.000Z,7.1
2023-03-10T00:39:00.990Z,7
2023-03-10T00:40:00.942Z,7.1
2023-03-10T00:44:01.010Z,7.2
2023-03-10T00:45:01.130Z,7.1
2023-03-10T00:48:01.007Z,7.1
2023-03-10T00:52:01.025Z,7.3
2023-03-10T00:53:00.984Z,7.2
2023-03-10T00:57:01.067Z,7.4
2023-03-10T00:59:01.019Z,7.2
2023-03-10T01:01:00.945Z,7.3
2023-03-10T01:04:01.033Z,7.2
2023-03-10T01:07:00.985Z,7.4
2023-03-10T01:09:00.971Z,7.3
2023-03-10T01:12:01.004Z,7.4
2023-03-10T01:15:00.982Z,7.5
2023-03-10T01:19:00.930Z,7.2
2023-03-10T01:20:01.051Z,7.4
2023-03-10T01:23:00.984Z,7.4
2023-03-10T01:25:01.081Z,7.3
2023-03-10T01:27:01.173Z,7.3
2023-03-10T01:29:01.042Z,7.5
2023-03-10T01:31:01.148Z,7.4
2023-03-10T01:33:01.005Z,7.4
2023-03-10T01:35:00.980Z,7.6
2023-03-10T01:36:01.042Z,7.5
2023-03-10T01:42:01.043Z,7.6
2023-03-10T01:47:01.002Z,7.7
2023-03-10T01:52:00.934Z,7.6
2023-03-10T01:54:01.038Z,7.6
2023-03-10T01:56:01.111Z,7.8
2023-03-10T01:58:01.050Z,7.8
2023-03-10T02:00:01.203Z,7.7
2023-03-10T02:02:01.027Z,7.9
2023-03-10T02:03:01.007Z,7.7
2023-03-10T02:04:00.992Z,7.8
2023-03-10T02:07:00.965Z,7.7
2023-03-10T02:08:01.015Z,7.8
2023-03-10T02:10:01.009Z,7.7
2023-03-10T02:12:01.020Z,7.8
2023-03-10T02:18:00.970Z,7.7
2023-03-10T02:24:01.901Z,8
2023-03-10T02:26:00.997Z,7.9
2023-03-10T02:28:00.988Z,7.9
2023-03-10T02:33:00.926Z,8
2023-03-10T02:34:00.970Z,7.8
2023-03-10T02:35:01.000Z,7.9
2023-03-10T02:38:01.006Z,7.8
2023-03-10T02:40:00.983Z,7.9
2023-03-10T02:46:01.017Z,8.1
2023-03-10T02:50:00.994Z,7.8
2023-03-10T02:52:01.016Z,8.1
2023-03-10T02:54:00.946Z,8
2023-03-10T02:57:00.960Z,7.9
2023-03-10T02:59:00.951Z,8
2023-03-10T03:00:00.925Z,8.1
2023-03-10T03:01:00.982Z,8.2
2023-03-10T03:02:01.075Z,8
2023-03-10T03:04:01.010Z,8
2023-03-10T03:09:00.982Z,7.9
2023-03-10T03:10:00.994Z,8
2023-03-10T03:14:00.989Z,8.1
2023-03-10T03:15:01.187Z,8
2023-03-10T03:18:00.939Z,7.9
2023-03-10T03:19:01.023Z,8
2023-03-10T03:27:00.961Z,7.9
2023-03-10T03:30:01.115Z,8
2023-03-10T03:32:01.064Z,8
2023-03-10T03:34:01.008Z,8
2023-03-10T03:40:01.089Z,8.1
2023-03-10T03:42:00.945Z,8
2023-03-10T03:44:00.984Z,7.9
2023-03-10T03:46:01.099Z,8
2023-03-10T03:48:01.032Z,8.1
2023-03-10T03:50:00.929Z,8.1
2023-03-10T03:51:00.979Z,8
2023-03-10T03:53:00.896Z,8.1
2023-03-10T03:55:00.988Z,8
2023-03-10T03:57:00.915Z,8.2
2023-03-10T03:58:00.915Z,8.1
2023-03-10T04:00:01.128Z,8.1
2023-03-10T04:03:00.986Z,8
2023-03-10T04:05:00.939Z,8.1
2023-03-10T04:10:00.934Z,8.1
2023-03-10T04:12:00.954Z,8
2023-03-10T04:17:00.913Z,7.9
2023-03-10T04:19:00.945Z,8
2023-03-10T04:20:07.225Z,7.9
2023-03-10T04:21:00.963Z,7.8
2023-03-10T04:24:00.943Z,7.7
2023-03-10T04:26:00.939Z,7.9
2023-03-10T04:29:00.947Z,7.9
2023-03-10T04:36:01.077Z,7.8
2023-03-10T04:37:00.956Z,8
2023-03-10T04:38:00.944Z,7.9
2023-03-10T04:40:00.988Z,8
2023-03-10T04:43:00.952Z,8
2023-03-10T04:45:00.959Z,7.9
2023-03-10T04:49:00.928Z,8.1
2023-03-10T04:50:00.948Z,7.9
2023-03-10T04:53:00.947Z,8
2023-03-10T04:56:00.988Z,8.1
2023-03-10T04:59:00.945Z,7.9
2023-03-10T05:03:00.956Z,8
2023-03-10T05:06:00.935Z,7.9
2023-03-10T05:09:00.957Z,8.1
2023-03-10T05:13:00.935Z,8.2
2023-03-10T05:15:00.979Z,8
2023-03-10T05:17:00.930Z,8.1
2023-03-10T05:21:00.937Z,8.2
2023-03-10T05:25:00.947Z,8.3
2023-03-10T05:28:00.947Z,8.1
2023-03-10T05:29:00.921Z,8.2
2023-03-10T05:31:00.982Z,8.3
2023-03-10T05:34:00.976Z,8.4
2023-03-10T05:38:00.943Z,8.2
2023-03-10T05:40:01.005Z,8.4
2023-03-10T05:41:01.033Z,8.5
2023-03-10T05:43:00.936Z,8.5
2023-03-10T05:45:00.933Z,8.4
2023-03-10T05:47:01.000Z,8.3
2023-03-10T05:48:00.929Z,8.5
2023-03-10T05:50:00.927Z,8.4
2023-03-10T05:57:00.978Z,8.3
2023-03-10T05:58:00.984Z,8.6
2023-03-10T06:00:00.989Z,8.3
2023-03-10T06:01:01.039Z,8.4
2023-03-10T06:03:01.015Z,8.3
2023-03-10T06:04:01.022Z,8.4
2023-03-10T06:06:00.968Z,8.4
2023-03-10T06:09:00.936Z,8.3
2023-03-10T06:11:00.934Z,8.5
2023-03-10T06:12:00.973Z,8.4
2023-03-10T06:15:00.952Z,8.6
2023-03-10T06:20:01.017Z,8.6
2023-03-10T06:22:00.920Z,8.4
2023-03-10T06:26:00.960Z,8.6
2023-03-10T06:27:01.002Z,8.5
2023-03-10T06:32:00.941Z,8.4
2023-03-10T06:36:00.953Z,8.6
2023-03-10T06:37:00.972Z,8.5
2023-03-10T06:38:00.980Z,8.3
2023-03-10T06:41:00.922Z,8.6
2023-03-10T06:42:00.929Z,8.4
2023-03-10T06:45:00.936Z,8.6
2023-03-10T06:46:00.980Z,8.5
2023-03-10T06:48:00.947Z,8.6
2023-03-10T06:51:00.924Z,8.6
2023-03-10T06:53:00.923Z,8.7
2023-03-10T06:54:00.950Z,8.8
2023-03-10T06:55:00.975Z,8.5
2023-03-10T06:56:00.987Z,8.7
2023-03-10T06:58:00.924Z,8.8
2023-03-10T07:00:00.970Z,8.7
2023-03-10T07:01:01.020Z,8.8
2023-03-10T07:06:00.929Z,8.9
2023-03-10T07:09:00.921Z,8.8
2023-03-10T07:12:00.937Z,9
2023-03-10T07:13:00.975Z,8.9
2023-03-10T07:15:00.961Z,9
2023-03-10T07:18:00.924Z,9
2023-03-10T07:20:00.942Z,8.9
2023-03-10T07:21:00.953Z,9
2023-03-10T07:23:00.938Z,9.1
2023-03-10T07:24:01.006Z,9
2023-03-10T07:26:00.924Z,9
2023-03-10T07:27:00.965Z,9.1
2023-03-10T07:29:00.952Z,9
2023-03-10T07:30:01.074Z,9.1
2023-03-10T07:32:00.934Z,8.9
2023-03-10T07:34:00.948Z,9
2023-03-10T07:35:00.947Z,8.9
2023-03-10T07:37:00.932Z,9
2023-03-10T07:41:02.089Z,8.9
2023-03-10T07:44:00.917Z,9
2023-03-10T07:45:00.978Z,9.1
2023-03-10T07:47:01.009Z,9.3
2023-03-10T07:49:00.914Z,9.5
2023-03-10T07:51:00.938Z,9.6
2023-03-10T07:53:00.917Z,9.7
2023-03-10T07:54:00.975Z,9.6
2023-03-10T07:55:00.956Z,9.8
2023-03-10T07:57:00.971Z,9.8
2023-03-10T07:58:00.985Z,9.9
2023-03-10T08:00:00.968Z,10
2023-03-10T08:03:00.914Z,9.9
2023-03-10T08:04:01.069Z,10
2023-03-10T08:06:00.941Z,10.2
2023-03-10T08:08:00.934Z,10.1
2023-03-10T08:09:00.976Z,10.2
2023-03-10T08:11:00.951Z,10.3
2023-03-10T08:14:01.090Z,10.5
2023-03-10T08:16:01.066Z,10.6
2023-03-10T08:19:00.985Z,10.7
2023-03-10T08:26:00.955Z,10.5
2023-03-10T08:29:00.957Z,10.3
2023-03-10T08:33:00.961Z,10.2
2023-03-10T08:34:00.941Z,10.3
2023-03-10T08:35:01.000Z,10.1
2023-03-10T08:39:01.008Z,10.2
2023-03-10T08:41:01.054Z,10.1
2023-03-10T08:42:00.974Z,10.2
2023-03-10T08:44:00.986Z,10.2
2023-03-10T08:46:00.960Z,10.3
2023-03-10T08:49:00.964Z,10.5
2023-03-10T08:52:00.966Z,10.5
2023-03-10T08:53:00.937Z,10.6
2023-03-10T08:54:00.963Z,10.5
2023-03-10T08:56:00.954Z,10.6
2023-03-10T09:01:01.124Z,10.4
2023-03-10T09:04:00.962Z,10.5
2023-03-10T09:06:00.960Z,10.5
2023-03-10T09:07:01.019Z,10.4
2023-03-10T09:10:00.942Z,10.6
2023-03-10T09:14:01.022Z,10.7
2023-03-10T09:15:00.998Z,10.6
2023-03-10T09:17:01.013Z,10.8
2023-03-10T09:18:01.020Z,10.7
2023-03-10T09:19:00.986Z,10.8
2023-03-10T09:20:01.000Z,11
2023-03-10T09:22:00.936Z,11
2023-03-10T09:25:00.990Z,11.2
2023-03-10T09:28:00.934Z,11.3
2023-03-10T09:30:01.516Z,11.2
2023-03-10T09:33:00.962Z,11.2
2023-03-10T09:34:01.004Z,11.3
2023-03-10T09:36:07.539Z,11.3
2023-03-10T09:38:00.967Z,11.1
2023-03-10T09:39:01.086Z,11.3
2023-03-10T09:44:00.973Z,11.3
2023-03-10T09:46:01.056Z,11.4
2023-03-10T09:48:01.820Z,11.4
2023-03-10T09:49:00.942Z,11.5
2023-03-10T09:51:00.938Z,11.5
2023-03-10T09:52:00.971Z,11.6
2023-03-10T09:53:00.973Z,11.7
2023-03-10T09:55:00.915Z,11.6
2023-03-10T09:57:00.951Z,11.7
2023-03-10T09:58:02.527Z,11.6
2023-03-10T10:00:00.993Z,11.5
2023-03-10T10:06:00.959Z,11.4
2023-03-10T10:08:00.961Z,11.6
2023-03-10T10:12:00.989Z,11.6
2023-03-10T10:16:16.188Z,11.5
2023-03-10T10:18:11.961Z,11.5
2023-03-10T10:20:00.930Z,11.5
2023-03-10T10:22:00.927Z,11.5
2023-03-10T10:24:00.933Z,11.6
2023-03-10T10:27:00.982Z,11.5
2023-03-10T10:31:00.980Z,11.8
2023-03-10T10:32:00.980Z,11.7
2023-03-10T10:34:00.958Z,11.9
2023-03-10T10:35:00.935Z,11.7
2023-03-10T10:36:01.019Z,11.8
2023-03-10T10:40:01.052Z,11.7
2023-03-10T10:45:00.946Z,12.1
2023-03-10T10:46:00.954Z,12
2023-03-10T10:47:00.950Z,11.9
2023-03-10T10:50:00.962Z,12
2023-03-10T10:51:00.967Z,11.9
2023-03-10T10:54:00.943Z,12.1
2023-03-10T10:55:01.035Z,12
2023-03-10T10:58:01.752Z,12.1
2023-03-10T11:00:01.108Z,11.9
2023-03-10T11:03:00.949Z,12.1
2023-03-10T11:04:01.026Z,12.3
2023-03-10T11:05:01.015Z,12.2
2023-03-10T11:07:00.932Z,12.1
2023-03-10T11:08:00.990Z,12.2
2023-03-10T11:10:00.994Z,12.4
2023-03-10T11:12:01.021Z,12.4
2023-03-10T11:13:01.044Z,12.3
2023-03-10T11:15:00.974Z,12.3
2023-03-10T11:16:01.232Z,12.4
2023-03-10T11:20:00.952Z,12.8
2023-03-10T11:24:01.030Z,12.7
2023-03-10T11:27:00.955Z,12.7
2023-03-10T11:29:01.000Z,12.6
2023-03-10T11:30:01.005Z,12.7
2023-03-10T11:33:00.952Z,12.9
2023-03-10T11:35:01.001Z,13.1
2023-03-10T11:37:01.030Z,13.4
2023-03-10T11:40:01.047Z,13.7
2023-03-10T11:43:00.995Z,14
2023-03-10T11:45:00.984Z,14.1
2023-03-10T11:46:01.086Z,14
2023-03-10T11:48:01.014Z,13.9
2023-03-10T11:52:01.107Z,14
2023-03-10T11:55:01.042Z,14.3
2023-03-10T11:57:00.998Z,14.4
2023-03-10T11:59:01.010Z,14.2
2023-03-10T12:01:00.992Z,14.3
2023-03-10T12:02:00.950Z,14.1
2023-03-10T12:03:00.938Z,14.2
2023-03-10T12:04:01.070Z,14
2023-03-10T12:06:00.998Z,14.2
2023-03-10T12:08:00.997Z,14.2
2023-03-10T12:10:01.000Z,14.1
2023-03-10T12:12:01.071Z,14
2023-03-10T12:14:00.942Z,13.9
2023-03-10T12:18:01.015Z,13.8
2023-03-10T12:19:01.011Z,13.7
2023-03-10T12:21:01.009Z,14
2023-03-10T12:22:01.045Z,14.1
2023-03-10T12:25:00.966Z,14
2023-03-10T12:26:00.991Z,13.8
2023-03-10T12:31:01.068Z,14.1
2023-03-10T12:33:00.961Z,14.2
2023-03-10T12:34:01.022Z,14.3
2023-03-10T12:37:00.980Z,14.6
2023-03-10T12:40:00.996Z,14.8
2023-03-10T12:41:00.998Z,14.7
2023-03-10T12:43:00.992Z,14.6
2023-03-10T12:44:01.011Z,14.5
2023-03-10T12:46:01.006Z,14.4
2023-03-10T12:47:01.093Z,14.2
2023-03-10T12:48:00.977Z,14.1
2023-03-10T12:51:01.019Z,14
2023-03-10T12:53:01.032Z,13.8
2023-03-10T12:54:01.029Z,14
2023-03-10T12:56:01.086Z,13.7
2023-03-10T12:58:01.057Z,13.6
2023-03-10T13:00:01.003Z,13.3
2023-03-10T13:03:01.004Z,13.2
2023-03-10T13:04:01.089Z,13.1
2023-03-10T13:05:01.012Z,13
2023-03-10T13:07:01.012Z,12.8
2023-03-10T13:08:01.044Z,12.6
2023-03-10T13:09:01.032Z,12.3
2023-03-10T13:10:01.171Z,11.9
2023-03-10T13:12:01.077Z,11.5
2023-03-10T13:15:01.191Z,10.8
2023-03-10T13:17:01.012Z,10.6
2023-03-10T13:18:01.097Z,10.5
2023-03-10T13:21:01.013Z,10.1
2023-03-10T13:23:01.010Z,10
2023-03-10T13:24:01.045Z,9.8
2023-03-10T13:28:01.008Z,9.6
2023-03-10T13:31:00.973Z,9.4
2023-03-10T13:32:01.434Z,9.3
2023-03-10T13:35:01.006Z,9.2
2023-03-10T13:37:01.035Z,9.1
2023-03-10T13:39:00.936Z,9
2023-03-10T13:45:01.100Z,8.9
2023-03-10T13:47:01.032Z,8.9
2023-03-10T13:48:00.987Z,9
2023-03-10T13:50:01.134Z,8.9
2023-03-10T13:51:01.213Z,9.1
2023-03-10T13:56:01.137Z,9.3
2023-03-10T13:58:01.024Z,9.5
2023-03-10T14:00:01.149Z,9.8
2023-03-10T14:02:01.119Z,10
2023-03-10T14:04:01.156Z,10.3
2023-03-10T14:05:01.169Z,10.1
2023-03-10T14:06:01.211Z,10.2
2023-03-10T14:13:01.182Z,10.6
2023-03-10T14:14:01.227Z,10.5
2023-03-10T14:16:00.939Z,10.7
2023-03-10T14:19:00.929Z,10.6
2023-03-10T14:23:00.925Z,10.7
2023-03-10T14:24:00.943Z,10.5
2023-03-10T14:28:01.049Z,10.5
2023-03-10T14:30:01.172Z,10.7
2023-03-10T14:32:00.933Z,10.4
2023-03-10T14:35:00.957Z,10.4
2023-03-10T14:36:01.100Z,10.3
2023-03-10T14:37:01.038Z,10.4
2023-03-10T14:39:00.994Z,10.4
2023-03-10T14:41:00.939Z,10.3
2023-03-10T14:42:00.956Z,10.5
2023-03-10T14:44:01.018Z,10.4
2023-03-10T14:46:01.133Z,10.3
2023-03-10T14:48:01.034Z,10.2
2023-03-10T14:49:00.991Z,10.3
2023-03-10T14:50:00.987Z,10.1
2023-03-10T14:51:01.043Z,10
2023-03-10T14:53:00.997Z,10
2023-03-10T14:54:00.992Z,9.9
2023-03-10T14:56:00.967Z,10
2023-03-10T14:57:00.950Z,9.9
2023-03-10T14:58:01.046Z,9.8
2023-03-10T14:59:01.164Z,9.6
2023-03-10T15:01:00.923Z,9.6
2023-03-10T15:02:01.083Z,9.5
2023-03-10T15:04:00.950Z,9.6
2023-03-10T15:05:00.994Z,9.4
2023-03-10T15:06:00.955Z,9.5
2023-03-10T15:09:00.987Z,9.4
2023-03-10T15:12:00.941Z,9.5
2023-03-10T15:13:00.939Z,9.4
2023-03-10T15:14:00.947Z,9.3
2023-03-10T15:17:02.725Z,9.2
2023-03-10T15:18:00.972Z,9.3
2023-03-10T15:19:00.997Z,9.2
2023-03-10T15:20:01.144Z,9.4
2023-03-10T15:22:00.935Z,9.6
2023-03-10T15:24:00.945Z,9.5
2023-03-10T15:25:00.946Z,9.6
2023-03-10T15:27:00.992Z,9.5
2023-03-10T15:29:00.938Z,9.7
2023-03-10T15:30:01.033Z,9.6
2023-03-10T15:32:01.015Z,9.8
2023-03-10T15:34:01.073Z,9.9
2023-03-10T15:37:00.949Z,9.9
2023-03-10T15:38:01.025Z,9.8
2023-03-10T15:41:00.983Z,9.8
2023-03-10T15:43:01.047Z,9.7
2023-03-10T15:44:01.031Z,9.8
2023-03-10T15:46:00.951Z,9.8
2023-03-10T15:48:00.963Z,9.4
2023-03-10T15:51:01.002Z,9.3
2023-03-10T15:53:01.121Z,9.1
2023-03-10T15:56:00.959Z,9
2023-03-10T15:58:00.994Z,8.9
2023-03-10T16:02:01.012Z,8.7
2023-03-10T16:03:00.979Z,9
2023-03-10T16:04:00.998Z,8.8
2023-03-10T16:06:01.006Z,8.7
2023-03-10T16:08:00.946Z,8.6
2023-03-10T16:09:00.949Z,8.7
2023-03-10T16:14:00.965Z,8.6
2023-03-10T16:17:00.975Z,8.7
2023-03-10T16:19:00.951Z,8.6
2023-03-10T16:22:00.949Z,8.5
2023-03-10T16:23:00.993Z,8.6
2023-03-10T16:24:01.032Z,8.5
2023-03-10T16:26:01.086Z,8.4
2023-03-10T16:28:01.010Z,8.4
2023-03-10T16:31:01.011Z,8.4
2023-03-10T16:33:00.938Z,8.3
2023-03-10T16:34:00.938Z,8.2
2023-03-10T16:36:01.012Z,8.2
2023-03-10T16:38:00.961Z,8
2023-03-10T16:42:00.930Z,7.9
2023-03-10T16:43:00.925Z,8
2023-03-10T16:44:00.940Z,7.8
2023-03-10T16:46:00.969Z,8
2023-03-10T16:48:00.937Z,7.9
2023-03-10T16:53:00.982Z,7.7
2023-03-10T16:54:00.981Z,7.5
2023-03-10T16:56:00.944Z,7.7
2023-03-10T16:57:01.042Z,7.6
2023-03-10T16:58:00.989Z,7.5
2023-03-10T17:01:00.986Z,7.4
2023-03-10T17:02:00.985Z,7.6
2023-03-10T17:04:01.084Z,7.5
2023-03-10T17:06:01.112Z,7.4
2023-03-10T17:08:01.102Z,7.4
2023-03-10T17:10:01.013Z,7.4
2023-03-10T17:11:01.003Z,7.5
2023-03-10T17:13:01.002Z,7.4
2023-03-10T17:15:01.024Z,7.4
2023-03-10T17:18:00.938Z,7.5
2023-03-10T17:20:01.113Z,7.5
2023-03-10T17:22:00.952Z,7.5
2023-03-10T17:24:00.950Z,7.4
2023-03-10T17:27:00.935Z,7.3
2023-03-10T17:28:00.965Z,7.4
2023-03-10T17:31:01.008Z,7.3
2023-03-10T17:33:00.977Z,7.5
2023-03-10T17:37:00.945Z,7.4
2023-03-10T17:41:01.013Z,7.5
2023-03-10T17:43:13.104Z,7.6
2023-03-10T17:44:00.992Z,7.5
2023-03-10T17:45:00.993Z,7.4
2023-03-10T17:46:01.060Z,7.6
2023-03-10T17:47:01.134Z,7.5
2023-03-10T17:49:00.934Z,7.7
2023-03-10T17:50:00.974Z,7.6
2023-03-10T17:52:00.968Z,7.6
2023-03-10T17:53:00.939Z,7.7
2023-03-10T17:54:01.008Z,7.4
2023-03-10T17:58:00.946Z,7.5
2023-03-10T18:00:01.028Z,7.7
2023-03-10T18:02:00.967Z,7.4
2023-03-10T18:03:01.058Z,7.5
2023-03-10T18:11:00.986Z,7.6
2023-03-10T18:13:01.039Z,7.5
2023-03-10T18:18:01.005Z,7.4
2023-03-10T18:21:00.949Z,7.7
2023-03-10T18:22:01.155Z,7.4
2023-03-10T18:24:01.004Z,7.4
2023-03-10T18:25:00.992Z,7.6
2023-03-10T18:26:01.095Z,7.3
2023-03-10T18:28:00.978Z,7.4
2023-03-10T18:32:00.995Z,7.3
2023-03-10T18:33:01.003Z,7.4
2023-03-10T18:35:00.964Z,7.3
2023-03-10T18:40:01.026Z,7.2
2023-03-10T18:42:00.964Z,7.3
2023-03-10T18:44:01.101Z,7.2
2023-03-10T18:49:00.927Z,7.3
2023-03-10T18:50:01.035Z,7.2
2023-03-10T18:52:00.951Z,7.3
2023-03-10T18:54:01.224Z,7.2
2023-03-10T18:57:00.973Z,7.1
2023-03-10T18:58:00.987Z,7.2
2023-03-10T19:02:01.115Z,7
2023-03-10T19:03:01.104Z,7.2
2023-03-10T19:07:00.938Z,7.2
2023-03-10T19:08:00.978Z,7.1
2023-03-10T19:11:00.985Z,7.2
2023-03-10T19:15:01.030Z,7.2
2023-03-10T19:17:00.966Z,7
2023-03-10T19:18:01.011Z,7.2
2023-03-10T19:19:01.020Z,7.1
2023-03-10T19:21:01.023Z,7.2
2023-03-10T19:23:00.989Z,7
2023-03-10T19:24:01.039Z,7.1
2023-03-10T19:27:00.994Z,7
2023-03-10T19:29:00.976Z,7.1
2023-03-10T19:31:01.019Z,6.9
2023-03-10T19:32:01.016Z,7
2023-03-10T19:34:00.958Z,6.9
2023-03-10T19:36:01.005Z,6.9
2023-03-10T19:38:01.026Z,6.7
2023-03-10T19:41:00.982Z,6.9
2023-03-10T19:42:00.979Z,6.7
2023-03-10T19:43:00.991Z,6.8
2023-03-10T19:45:01.107Z,6.7
2023-03-10T19:47:01.068Z,6.6
2023-03-10T19:49:00.938Z,6.5
2023-03-10T19:53:00.940Z,6.4
2023-03-10T19:54:01.028Z,6.5
2023-03-10T19:57:00.950Z,6.4
2023-03-10T19:59:00.925Z,6.5
2023-03-10T20:00:01.157Z,6.4
2023-03-10T20:03:00.973Z,6.2
2023-03-10T20:07:00.940Z,6.3
2023-03-10T20:08:00.982Z,6.2
2023-03-10T20:10:00.937Z,6.1
2023-03-10T20:16:00.956Z,6
2023-03-10T20:17:00.988Z,5.9
2023-03-10T20:20:00.930Z,6
2023-03-10T20:23:00.950Z,5.9
2023-03-10T20:27:00.925Z,5.7
2023-03-10T20:28:00.940Z,5.8
2023-03-10T20:30:01.080Z,5.7
2023-03-10T20:33:00.929Z,5.9
2023-03-10T20:34:00.936Z,5.8
2023-03-10T20:36:00.974Z,5.7
2023-03-10T20:38:00.985Z,5.7
2023-03-10T20:41:00.941Z,5.6
2023-03-10T20:42:00.953Z,5.7
2023-03-10T20:50:00.962Z,5.6
2023-03-10T20:52:00.973Z,5.6
2023-03-10T20:53:00.964Z,5.8
2023-03-10T20:54:00.962Z,5.5
2023-03-10T20:56:01.084Z,5.5
2023-03-10T20:58:00.940Z,5.7
2023-03-10T20:59:00.955Z,5.6
2023-03-10T21:02:00.947Z,5.5
2023-03-10T21:03:00.989Z,5.6
2023-03-10T21:05:00.914Z,5.5
2023-03-10T21:06:00.932Z,5.6
2023-03-10T21:08:00.952Z,5.5
2023-03-10T21:09:00.958Z,5.6
2023-03-10T21:10:00.981Z,5.7
2023-03-10T21:11:00.999Z,5.6
2023-03-10T21:13:00.905Z,5.7
2023-03-10T21:14:00.922Z,5.6
2023-03-10T21:15:01.079Z,5.5
2023-03-10T21:17:01.062Z,5.5
2023-03-10T21:19:00.953Z,5.5
2023-03-10T21:25:00.921Z,5.4
2023-03-10T21:29:00.992Z,5.5
2023-03-10T21:30:01.121Z,5.4
2023-03-10T21:32:00.956Z,5.5
2023-03-10T21:34:00.986Z,5.4
2023-03-10T21:38:00.968Z,5.3
2023-03-10T21:40:00.926Z,5.2
2023-03-10T21:42:00.982Z,5.3
2023-03-10T21:49:00.928Z,5.1
2023-03-10T21:50:00.937Z,5.2
2023-03-10T21:52:00.955Z,5.2
2023-03-10T21:53:01.028Z,5.1
2023-03-10T21:59:00.959Z,4.9
2023-03-10T22:00:00.970Z,5.1
2023-03-10T22:02:01.004Z,5
2023-03-10T22:05:00.999Z,4.8
2023-03-10T22:07:01.129Z,4.9
2023-03-10T22:09:00.992Z,4.8
2023-03-10T22:11:00.943Z,4.8
2023-03-10T22:13:00.921Z,4.7
2023-03-10T22:15:00.920Z,4.8
2023-03-10T22:16:01.020Z,4.9
2023-03-10T22:18:01.091Z,4.8
2023-03-10T22:20:00.947Z,4.7
2023-03-10T22:21:00.982Z,4.8
2023-03-10T22:22:00.985Z,4.7
2023-03-10T22:24:01.005Z,4.7
2023-03-10T22:26:00.998Z,4.7
2023-03-10T22:30:01.030Z,4.5
2023-03-10T22:32:00.964Z,4.7
2023-03-10T22:34:00.982Z,4.5
2023-03-10T22:36:01.002Z,4.5
2023-03-10T22:38:00.972Z,4.6
2023-03-10T22:39:00.964Z,4.7
2023-03-10T22:41:01.013Z,4.6
2023-03-10T22:44:00.964Z,4.4
2023-03-10T22:45:00.962Z,4.5
2023-03-10T22:48:01.052Z,4.2
2023-03-10T22:50:01.002Z,4.2
2023-03-10T22:51:01.002Z,4.1
2023-03-10T22:55:00.949Z,4
2023-03-10T22:56:00.989Z,3.9
2023-03-10T22:58:00.988Z,3.8
2023-03-10T23:02:00.992Z,3.6
2023-03-10T23:04:01.046Z,3.4
2023-03-10T23:06:00.931Z,3.3
2023-03-10T23:07:00.932Z,3.1
2023-03-10T23:09:00.958Z,3
2023-03-10T23:10:00.947Z,2.9
2023-03-10T23:12:00.987Z,2.7
2023-03-10T23:14:00.950Z,2.4
2023-03-10T23:17:00.965Z,2.2
2023-03-10T23:20:00.972Z,2
2023-03-10T23:22:00.991Z,2.1
2023-03-10T23:24:00.945Z,1.9
2023-03-10T23:25:01.004Z,1.8
2023-03-10T23:27:00.932Z,1.7
2023-03-10T23:29:00.980Z,1.6
2023-03-10T23:31:00.933Z,1.8
2023-03-10T23:32:01.019Z,1.5
2023-03-10T23:34:00.971Z,1.5
2023-03-10T23:36:01.007Z,1.6
2023-03-10T23:39:00.966Z,1.3
2023-03-10T23:41:00.986Z,1.2
2023-03-10T23:42:00.991Z,1.1
2023-03-10T23:44:00.959Z,1.1
2023-03-10T23:47:00.942Z,1.2
2023-03-10T23:48:00.928Z,1
2023-03-10T23:50:00.987Z,1.1
2023-03-10T23:53:00.990Z,1
2023-03-10T23:55:00.966Z,1
2023-03-10T23:56:00.966Z,1.1
2023-03-10T23:57:00.962Z,1
